Time;durP1;ratioP1;P1;durP2;ratioP2;P2;SDS_P1;SDS_P2;PMS_P1;PMS_P2;Temp;Humidity;BMP_temperature;BMP_pressure;BME280_temperature;BME280_humidity;BME280_pressure;Samples;Min_cycle;Max_cycle;Signal;HPM_P1;HPM_P2
2022/01/11 00:00:41;;;;;;;14.48;5.90;;;2.70;93.80;;;;;;5005978;28;20124;-81
2022/01/11 00:03:07;;;;;;;13.48;5.93;;;2.70;93.80;;;;;;5010538;28;20083;-83
2022/01/11 00:07:58;;;;;;;13.65;6.60;;;2.70;93.80;;;;;;4989354;28;20056;-82
2022/01/11 00:10:31;;;;;;;10.43;5.72;;;2.70;93.80;;;;;;5009443;28;20339;-83
2022/01/11 00:12:57;;;;;;;12.80;5.97;;;2.70;93.80;;;;;;5009568;28;20044;-83
2022/01/11 00:15:22;;;;;;;18.20;8.95;;;2.70;93.80;;;;;;5006780;28;20057;-82
2022/01/11 00:17:48;;;;;;;16.98;8.07;;;2.70;93.80;;;;;;5007187;28;20067;-82
2022/01/11 00:20:16;;;;;;;15.05;8.85;;;2.70;93.80;;;;;;4994924;28;20033;-82
2022/01/11 00:24:28;;;;;;;19.08;8.60;;;2.70;93.80;;;;;;4995273;28;20040;-83
2022/01/11 00:25:45;;;;;;;18.85;8.40;;;2.70;93.80;;;;;;5003130;28;20064;-82
2022/01/11 00:28:11;;;;;;;14.50;7.88;;;2.70;93.80;;;;;;5008650;28;20411;-83
2022/01/11 00:30:40;;;;;;;10.95;6.60;;;2.70;93.90;;;;;;5005352;28;20037;-82
2022/01/11 00:33:09;;;;;;;13.68;6.80;;;2.70;93.90;;;;;;5007158;28;20033;-83
2022/01/11 00:35:42;;;;;;;14.25;6.53;;;2.70;93.90;;;;;;5001220;28;20049;-83
2022/01/11 00:38:09;;;;;;;13.48;6.10;;;2.70;93.90;;;;;;4976882;28;20026;-82
2022/01/11 00:40:35;;;;;;;12.52;6.65;;;2.70;93.90;;;;;;4976578;28;20084;-83
2022/01/11 00:43:01;;;;;;;11.35;5.95;;;2.70;94.20;;;;;;4999654;28;20037;-83
2022/01/11 00:45:29;;;;;;;9.45;6.13;;;2.70;93.90;;;;;;5012296;28;20064;-83
2022/01/11 00:47:55;;;;;;;9.30;5.70;;;2.70;93.90;;;;;;4980200;28;20041;-83
2022/01/11 00:50:21;;;;;;;11.18;5.80;;;2.70;93.90;;;;;;5014542;28;20091;-83
2022/01/11 00:52:46;;;;;;;11.23;6.07;;;2.70;93.90;;;;;;4990635;28;20033;-83
2022/01/11 00:55:12;;;;;;;10.40;6.15;;;2.70;93.90;;;;;;5003809;28;20026;-82
2022/01/11 00:57:37;;;;;;;11.23;5.85;;;2.70;93.90;;;;;;5003300;28;20029;-82
2022/01/11 01:00:08;;;;;;;15.75;5.95;;;2.70;93.90;;;;;;5014085;28;20036;-82
2022/01/11 01:02:34;;;;;;;7.82;5.85;;;2.70;93.90;;;;;;4993973;28;20028;-83
2022/01/11 01:04:59;;;;;;;9.98;5.75;;;2.70;93.90;;;;;;5014975;28;20030;-82
2022/01/11 01:07:25;;;;;;;9.43;5.95;;;2.70;93.90;;;;;;5005443;28;20416;-82
2022/01/11 01:10:01;;;;;;;8.15;5.78;;;2.70;93.90;;;;;;5007331;28;20569;-83
2022/01/11 01:12:27;;;;;;;9.55;5.25;;;2.70;93.90;;;;;;4971185;28;20033;-83
2022/01/11 01:14:52;;;;;;;9.98;6.50;;;2.70;93.90;;;;;;4998712;28;20249;-82
2022/01/11 01:17:18;;;;;;;9.68;5.50;;;2.70;93.90;;;;;;5002668;28;20419;-83
2022/01/11 01:19:43;;;;;;;12.10;6.15;;;2.70;93.90;;;;;;4994664;28;20108;-82
2022/01/11 01:22:09;;;;;;;9.98;5.80;;;2.70;93.90;;;;;;5004083;28;20033;-83
2022/01/11 01:24:34;;;;;;;9.20;5.72;;;2.70;94.00;;;;;;5007341;28;20030;-83
2022/01/11 01:27:00;;;;;;;8.90;6.20;;;2.70;94.00;;;;;;5010206;28;20095;-83
2022/01/11 01:29:26;;;;;;;12.38;6.00;;;2.80;94.00;;;;;;4988248;28;20056;-83
2022/01/11 01:31:51;;;;;;;11.57;5.72;;;2.70;93.90;;;;;;4980442;28;20089;-82
2022/01/11 01:34:17;;;;;;;11.63;6.03;;;2.70;93.90;;;;;;5022402;28;20056;-80
2022/01/11 01:36:42;;;;;;;10.18;5.88;;;2.80;94.00;;;;;;5008588;28;20096;-81
2022/01/11 01:39:08;;;;;;;9.60;5.47;;;2.70;93.90;;;;;;4990387;28;20059;-80
2022/01/11 01:41:33;;;;;;;9.48;5.47;;;2.70;93.90;;;;;;5002221;28;20025;-80
2022/01/11 01:44:01;;;;;;;9.65;5.55;;;2.70;93.90;;;;;;4980712;28;20116;-80
2022/01/11 01:46:27;;;;;;;9.30;6.00;;;2.70;94.00;;;;;;5001362;28;20056;-80
2022/01/11 01:48:55;;;;;;;10.95;6.10;;;2.70;93.90;;;;;;4996492;28;20033;-80
2022/01/11 01:51:20;;;;;;;11.02;6.35;;;2.80;94.00;;;;;;5013327;28;20037;-81
2022/01/11 01:53:47;;;;;;;13.10;6.05;;;2.80;94.00;;;;;;4988342;28;20038;-80
2022/01/11 01:56:13;;;;;;;11.07;6.47;;;2.70;94.00;;;;;;5010986;28;20029;-80
2022/01/11 01:58:39;;;;;;;13.27;6.63;;;2.80;94.00;;;;;;4992507;28;20137;-80
2022/01/11 02:01:05;;;;;;;9.93;6.30;;;2.70;94.00;;;;;;5009160;28;20068;-81
2022/01/11 02:03:39;;;;;;;10.68;6.15;;;2.80;94.00;;;;;;5007882;28;20025;-80
2022/01/11 02:06:10;;;;;;;12.82;5.80;;;2.80;94.00;;;;;;5007123;28;20491;-81
2022/01/11 02:08:35;;;;;;;10.98;6.90;;;2.80;94.00;;;;;;4988868;28;20029;-81
2022/01/11 02:11:01;;;;;;;12.70;5.95;;;2.80;94.00;;;;;;4997261;28;20729;-81
2022/01/11 02:13:27;;;;;;;10.75;6.45;;;2.80;94.00;;;;;;5005300;28;20033;-80
2022/01/11 02:15:53;;;;;;;12.25;7.20;;;2.80;94.00;;;;;;4992450;28;20108;-80
2022/01/11 02:18:21;;;;;;;15.80;7.15;;;2.80;94.00;;;;;;5004020;28;20060;-80
2022/01/11 02:20:47;;;;;;;13.50;6.10;;;2.80;94.00;;;;;;5007944;28;20033;-80
2022/01/11 02:23:13;;;;;;;10.15;5.57;;;2.80;94.00;;;;;;5013602;28;20103;-80
2022/01/11 02:25:39;;;;;;;11.93;6.78;;;2.70;94.00;;;;;;5027454;28;20049;-80
2022/01/11 02:28:05;;;;;;;12.95;6.75;;;2.70;94.00;;;;;;5005784;28;20033;-80
2022/01/11 02:30:33;;;;;;;14.82;7.32;;;2.80;94.00;;;;;;5009069;28;20029;-80
2022/01/11 02:32:59;;;;;;;11.77;6.28;;;2.70;94.00;;;;;;4974389;28;20408;-81
2022/01/11 02:35:25;;;;;;;12.60;6.68;;;2.80;94.00;;;;;;5005082;28;20049;-80
2022/01/11 02:37:50;;;;;;;9.90;6.32;;;2.80;94.00;;;;;;5010529;28;20154;-80
2022/01/11 02:40:16;;;;;;;14.27;6.75;;;2.70;94.00;;;;;;4997375;28;20036;-81
2022/01/11 02:42:42;;;;;;;8.63;5.75;;;2.80;94.00;;;;;;4982098;28;20037;-81
2022/01/11 02:45:12;;;;;;;12.55;6.18;;;2.70;94.00;;;;;;4995054;28;21215;-80
2022/01/11 02:47:37;;;;;;;10.38;6.40;;;2.70;94.00;;;;;;5005794;28;20109;-80
2022/01/11 02:50:03;;;;;;;11.20;6.07;;;2.70;94.00;;;;;;4985380;28;20125;-80
2022/01/11 02:52:29;;;;;;;10.40;5.95;;;2.80;94.00;;;;;;5005387;28;20025;-81
2022/01/11 02:54:54;;;;;;;15.20;6.97;;;2.80;94.00;;;;;;4994525;28;20030;-80
2022/01/11 02:57:20;;;;;;;11.07;6.35;;;2.80;94.00;;;;;;4996323;28;20026;-80
2022/01/11 02:59:45;;;;;;;11.10;6.43;;;2.70;94.00;;;;;;5004569;28;20048;-80
2022/01/11 03:02:11;;;;;;;11.32;5.80;;;2.70;94.00;;;;;;5012769;28;20106;-80
2022/01/11 03:04:36;;;;;;;8.65;5.60;;;2.70;94.00;;;;;;4994458;28;20113;-80
2022/01/11 03:07:02;;;;;;;9.60;6.05;;;2.80;94.00;;;;;;5017432;28;20502;-80
2022/01/11 03:09:33;;;;;;;9.73;6.18;;;2.70;94.00;;;;;;5015799;28;20486;-81
2022/01/11 03:11:59;;;;;;;;;;;2.70;94.00;;;;;;5010291;28;20031;-80
2022/01/11 03:14:24;;;;;;;12.15;7.10;;;2.70;94.00;;;;;;5024703;28;19917;-80
2022/01/11 03:16:50;;;;;;;12.50;5.68;;;2.80;94.00;;;;;;5006713;28;20102;-80
2022/01/11 03:19:15;;;;;;;12.60;6.60;;;2.70;94.00;;;;;;5038361;28;20026;-80
2022/01/11 03:21:41;;;;;;;12.20;6.40;;;2.80;94.00;;;;;;5024537;28;20055;-81
2022/01/11 03:24:06;;;;;;;10.70;6.60;;;2.80;94.10;;;;;;5044976;28;20044;-81
2022/01/11 03:26:32;;;;;;;11.85;5.85;;;2.80;94.10;;;;;;5029970;28;20082;-80
2022/01/11 03:28:57;;;;;;;12.30;6.65;;;2.80;94.10;;;;;;5021214;28;20044;-80
2022/01/11 03:31:24;;;;;;;8.10;5.70;;;2.80;94.10;;;;;;5014569;28;20046;-81
2022/01/11 03:33:49;;;;;;;8.88;5.50;;;2.80;94.10;;;;;;5000982;28;20032;-81
2022/01/11 03:36:15;;;;;;;11.60;5.93;;;2.70;94.10;;;;;;5008906;28;20321;-80
2022/01/11 03:38:41;;;;;;;11.35;6.80;;;2.80;94.10;;;;;;5017434;28;20120;-80
2022/01/11 03:41:06;;;;;;;9.38;5.60;;;2.70;94.00;;;;;;5014955;28;20066;-80
2022/01/11 03:43:32;;;;;;;11.82;5.68;;;2.80;94.10;;;;;;5018814;28;20036;-80
2022/01/11 03:46:00;;;;;;;11.55;6.18;;;2.70;94.00;;;;;;5016284;28;20056;-80
2022/01/11 03:48:26;;;;;;;12.27;6.38;;;2.80;94.10;;;;;;5066433;28;20036;-80
2022/01/11 03:50:53;;;;;;;10.23;5.68;;;2.80;94.10;;;;;;5037317;28;20036;-80
2022/01/11 03:53:23;;;;;;;9.35;5.80;;;2.80;94.10;;;;;;5017640;28;20035;-81
2022/01/11 03:58:17;;;;;;;12.77;5.82;;;2.70;94.10;;;;;;5013242;28;20665;-80
2022/01/11 04:00:43;;;;;;;9.90;5.82;;;2.80;94.10;;;;;;5056573;28;20040;-80
2022/01/11 04:03:09;;;;;;;12.50;6.18;;;2.80;94.10;;;;;;5022371;28;20037;-80
2022/01/11 04:05:34;;;;;;;9.10;5.85;;;2.80;94.10;;;;;;5037890;28;20032;-80
2022/01/11 04:08:00;;;;;;;9.02;5.88;;;2.80;94.10;;;;;;5016163;28;20171;-80
2022/01/11 04:10:26;;;;;;;11.20;5.95;;;2.80;94.10;;;;;;5036596;28;20120;-80
2022/01/11 04:12:52;;;;;;;10.32;6.20;;;2.80;94.10;;;;;;5030610;28;20060;-80
2022/01/11 04:15:18;;;;;;;9.73;5.63;;;2.70;94.10;;;;;;5035271;28;20029;-80
2022/01/11 04:17:43;;;;;;;12.15;7.00;;;2.80;94.10;;;;;;5021226;28;20040;-80
2022/01/11 04:20:09;;;;;;;13.60;6.55;;;2.80;94.10;;;;;;5008381;28;20021;-80
2022/01/11 04:22:35;;;;;;;9.95;5.80;;;2.70;94.10;;;;;;5031299;28;20029;-79
2022/01/11 04:25:01;;;;;;;11.77;6.20;;;2.80;94.10;;;;;;4990184;28;20033;-80
2022/01/11 04:27:26;;;;;;;9.50;6.30;;;2.70;94.10;;;;;;5018447;28;20059;-80
2022/01/11 04:29:52;;;;;;;10.85;5.65;;;2.80;94.10;;;;;;5037268;28;20029;-79
2022/01/11 04:32:17;;;;;;;10.38;6.35;;;2.70;94.10;;;;;;4991792;28;20120;-80
2022/01/11 04:34:43;;;;;;;12.45;6.25;;;2.80;94.10;;;;;;4987896;28;20108;-81
2022/01/11 04:37:08;;;;;;;11.00;6.50;;;2.80;94.10;;;;;;5022987;28;20056;-80
2022/01/11 04:39:34;;;;;;;12.25;6.82;;;2.80;94.10;;;;;;5016916;28;20450;-80
2022/01/11 04:41:59;;;;;;;10.95;6.45;;;2.80;94.10;;;;;;5006175;28;20598;-79
2022/01/11 04:44:25;;;;;;;12.82;6.32;;;2.80;94.10;;;;;;5018007;28;20032;-80
2022/01/11 04:46:50;;;;;;;11.30;6.10;;;2.80;94.10;;;;;;5016947;28;20045;-79
2022/01/11 04:49:16;;;;;;;8.88;6.15;;;2.80;94.10;;;;;;5001253;28;20056;-80
2022/01/11 04:51:42;;;;;;;10.80;5.90;;;2.80;94.10;;;;;;5013787;28;20136;-80
2022/01/11 04:54:08;;;;;;;10.40;6.07;;;2.80;94.10;;;;;;5006203;28;20064;-81
2022/01/11 04:56:33;;;;;;;8.55;5.65;;;2.80;94.10;;;;;;4986912;28;20091;-80
2022/01/11 04:58:59;;;;;;;11.00;6.43;;;2.80;94.10;;;;;;5027275;28;20085;-81
2022/01/11 05:01:24;;;;;;;11.02;6.57;;;2.80;94.10;;;;;;5044714;28;20124;-81
2022/01/11 05:03:50;;;;;;;12.18;7.30;;;2.80;94.10;;;;;;5032812;28;20743;-81
2022/01/11 05:06:15;;;;;;;12.40;6.47;;;2.80;94.10;;;;;;5036293;28;20566;-81
2022/01/11 05:08:42;;;;;;;11.18;6.50;;;2.80;94.10;;;;;;5030866;28;20179;-81
2022/01/11 05:11:08;;;;;;;9.55;6.50;;;2.80;94.10;;;;;;5030612;28;20098;-81
2022/01/11 05:13:34;;;;;;;12.93;5.97;;;2.80;94.10;;;;;;5018666;28;20083;-81
2022/01/11 05:16:02;;;;;;;10.63;6.35;;;2.80;94.10;;;;;;5021507;28;20086;-81
2022/01/11 05:18:28;;;;;;;10.18;6.07;;;2.80;94.10;;;;;;5028411;28;20448;-80
2022/01/11 05:20:53;;;;;;;11.77;6.40;;;2.80;94.10;;;;;;5021644;28;20116;-81
2022/01/11 05:23:19;;;;;;;11.50;6.47;;;2.80;94.10;;;;;;5028909;28;20118;-80
2022/01/11 05:25:44;;;;;;;10.85;6.60;;;2.80;94.20;;;;;;5014435;28;20099;-81
2022/01/11 05:28:10;;;;;;;11.90;7.03;;;2.80;94.10;;;;;;5025326;28;20522;-81
2022/01/11 05:30:36;;;;;;;10.02;6.35;;;2.80;94.20;;;;;;5019195;28;20075;-81
2022/01/11 05:33:01;;;;;;;9.40;5.70;;;2.80;94.20;;;;;;5010184;28;20040;-81
2022/01/11 05:35:27;;;;;;;12.07;6.43;;;2.80;94.20;;;;;;5037522;28;20048;-81
2022/01/11 05:37:53;;;;;;;10.95;5.72;;;2.80;94.20;;;;;;5022424;28;20029;-81
2022/01/11 05:40:18;;;;;;;9.90;5.82;;;2.80;94.20;;;;;;5037667;28;20040;-81
2022/01/11 05:42:44;;;;;;;8.68;5.97;;;2.80;94.20;;;;;;5036318;28;20438;-80
2022/01/11 05:45:10;;;;;;;9.48;6.10;;;2.80;94.20;;;;;;5059671;28;20033;-82
2022/01/11 05:47:35;;;;;;;11.45;7.10;;;2.80;94.20;;;;;;5001108;28;20033;-81
2022/01/11 05:50:03;;;;;;;14.60;7.80;;;2.80;94.20;;;;;;5038218;28;20049;-82
2022/01/11 05:52:29;;;;;;;13.32;7.47;;;2.80;94.20;;;;;;5038970;28;20033;-81
2022/01/11 05:54:54;;;;;;;12.52;7.25;;;2.80;94.20;;;;;;5043902;28;20031;-82
2022/01/11 05:57:20;;;;;;;10.50;6.20;;;2.80;94.20;;;;;;5024760;28;20090;-82
2022/01/11 05:59:46;;;;;;;11.93;6.53;;;2.80;94.10;;;;;;5024558;28;20056;-81
2022/01/11 06:02:11;;;;;;;10.68;6.38;;;2.80;94.20;;;;;;5027579;28;20033;-81
2022/01/11 06:04:37;;;;;;;9.68;5.90;;;2.80;94.20;;;;;;5008261;28;20036;-81
2022/01/11 06:07:02;;;;;;;10.35;6.15;;;2.80;94.20;;;;;;5036936;28;20033;-81
2022/01/11 06:09:28;;;;;;;8.93;5.53;;;2.80;94.20;;;;;;5029664;28;20033;-81
2022/01/11 06:11:54;;;;;;;9.02;5.72;;;2.80;94.20;;;;;;5005963;28;20034;-81
2022/01/11 06:14:20;;;;;;;10.15;5.22;;;2.80;94.20;;;;;;5037889;28;20031;-81
2022/01/11 06:16:46;;;;;;;11.13;5.85;;;2.80;94.20;;;;;;5024224;28;20108;-81
2022/01/11 06:19:11;;;;;;;11.70;6.45;;;2.80;94.20;;;;;;5028073;28;20029;-81
2022/01/11 06:21:37;;;;;;;8.15;4.97;;;2.80;94.20;;;;;;5038333;28;20202;-81
2022/01/11 06:24:02;;;;;;;8.80;5.50;;;2.80;94.20;;;;;;5042698;28;20140;-81
2022/01/11 06:26:29;;;;;;;9.50;5.43;;;2.80;94.20;;;;;;5038476;28;20033;-81
2022/01/11 06:28:56;;;;;;;8.20;5.40;;;2.80;94.20;;;;;;5030538;28;20029;-81
2022/01/11 06:31:22;;;;;;;9.88;5.40;;;2.80;94.20;;;;;;5032721;28;20044;-82
2022/01/11 06:33:47;;;;;;;9.43;5.28;;;2.80;94.20;;;;;;5031505;28;20041;-81
2022/01/11 06:36:13;;;;;;;11.13;6.07;;;2.80;94.20;;;;;;5028469;28;20123;-81
2022/01/11 06:38:39;;;;;;;10.85;5.97;;;2.80;94.20;;;;;;5032168;28;20517;-81
2022/01/11 06:41:04;;;;;;;9.52;6.32;;;2.80;94.60;;;;;;5028945;28;20092;-81
2022/01/11 06:43:30;;;;;;;14.13;6.85;;;2.80;94.20;;;;;;5013067;28;20513;-82
2022/01/11 06:45:56;;;;;;;12.45;6.93;;;2.80;94.20;;;;;;5011699;28;20116;-81
2022/01/11 06:48:21;;;;;;;10.65;6.40;;;2.80;94.20;;;;;;5029501;28;20040;-81
2022/01/11 06:50:47;;;;;;;10.35;5.88;;;2.80;94.20;;;;;;5019118;28;20091;-81
2022/01/11 06:53:13;;;;;;;8.50;5.80;;;2.80;94.20;;;;;;5025279;28;20748;-81
2022/01/11 06:55:38;;;;;;;11.07;5.93;;;2.80;94.20;;;;;;5012435;28;20036;-81
2022/01/11 06:58:04;;;;;;;8.15;5.38;;;2.80;94.20;;;;;;5000710;28;20029;-81
2022/01/11 07:00:29;;;;;;;8.43;5.00;;;2.80;94.20;;;;;;5029944;28;20958;-81
2022/01/11 07:02:55;;;;;;;9.15;5.53;;;2.80;94.50;;;;;;5012695;28;20036;-82
2022/01/11 07:05:20;;;;;;;9.32;5.82;;;2.80;94.20;;;;;;5025143;28;20634;-81
2022/01/11 07:07:46;;;;;;;11.05;5.35;;;2.80;94.20;;;;;;5027535;28;20040;-81
2022/01/11 07:10:12;;;;;;;7.75;5.07;;;2.80;94.20;;;;;;5016867;28;20186;-81
2022/01/11 07:12:37;;;;;;;8.10;5.18;;;2.80;94.50;;;;;;5003260;28;20036;-82
2022/01/11 07:15:03;;;;;;;10.07;5.07;;;2.80;94.20;;;;;;5006643;28;20056;-81
2022/01/11 07:17:29;;;;;;;7.82;5.20;;;2.80;94.20;;;;;;5016024;28;20036;-81
2022/01/11 07:19:55;;;;;;;9.68;5.13;;;2.80;94.20;;;;;;5005938;28;20240;-82
2022/01/11 07:22:20;;;;;;;8.05;5.53;;;2.80;94.20;;;;;;5033213;28;20037;-82
2022/01/11 07:24:46;;;;;;;6.40;4.78;;;2.80;94.20;;;;;;5034813;28;20401;-81
2022/01/11 07:27:11;;;;;;;9.27;5.82;;;2.80;94.20;;;;;;4999582;28;20037;-81
2022/01/11 07:29:37;;;;;;;8.07;5.30;;;2.80;94.20;;;;;;5005661;28;20033;-81
2022/01/11 07:32:06;;;;;;;13.95;8.55;;;2.80;94.60;;;;;;5002334;28;20033;-82
2022/01/11 07:34:31;;;;;;;14.70;8.05;;;2.80;94.20;;;;;;5045714;28;20137;-81
2022/01/11 07:36:57;;;;;;;15.85;7.20;;;2.80;94.60;;;;;;5025214;28;20065;-82
2022/01/11 07:39:22;;;;;;;11.98;7.25;;;2.80;94.20;;;;;;5045312;28;20545;-82
2022/01/11 07:41:50;;;;;;;9.30;7.78;;;2.80;94.30;;;;;;5014243;28;20046;-81
2022/01/11 07:44:15;;;;;;;10.73;6.15;;;2.90;94.30;;;;;;5038357;28;20025;-84
2022/01/11 07:46:42;;;;;;;9.23;5.70;;;2.80;94.30;;;;;;5045021;28;20108;-84
2022/01/11 07:49:07;;;;;;;13.02;5.50;;;2.80;94.30;;;;;;5029764;28;20045;-81
2022/01/11 07:51:33;;;;;;;9.20;6.30;;;2.80;94.30;;;;;;5014316;28;20104;-82
2022/01/11 07:53:58;;;;;;;10.05;6.28;;;2.90;94.30;;;;;;5023242;28;20037;-82
2022/01/11 07:56:24;;;;;;;10.88;5.78;;;2.90;94.60;;;;;;5067055;28;20047;-82
2022/01/11 07:58:50;;;;;;;13.43;6.13;;;2.90;94.30;;;;;;4994607;28;20037;-81
2022/01/11 08:01:15;;;;;;;14.55;5.80;;;2.90;94.30;;;;;;5009632;28;20406;-82
2022/01/11 08:03:41;;;;;;;21.40;12.13;;;2.90;94.30;;;;;;5011532;28;20037;-82
2022/01/11 08:06:06;;;;;;;12.27;7.78;;;2.90;94.30;;;;;;5033298;28;20116;-81
2022/01/11 08:08:32;;;;;;;9.98;6.70;;;2.90;94.30;;;;;;5002982;28;20369;-81
2022/01/11 08:10:58;;;;;;;13.40;6.32;;;2.90;94.30;;;;;;5018042;28;20371;-81
2022/01/11 08:13:24;;;;;;;11.20;6.32;;;2.90;94.30;;;;;;5018033;28;20031;-81
2022/01/11 08:15:49;;;;;;;9.50;5.88;;;2.90;94.30;;;;;;5011118;28;20451;-81
2022/01/11 08:18:15;;;;;;;12.25;6.10;;;3.00;94.30;;;;;;5016438;28;20033;-81
2022/01/11 08:20:40;;;;;;;17.30;6.55;;;2.90;94.30;;;;;;5002628;28;20041;-82
2022/01/11 08:23:06;;;;;;;11.60;5.60;;;3.00;94.40;;;;;;5004423;28;20035;-81
2022/01/11 08:25:31;;;;;;;10.48;5.70;;;3.00;94.30;;;;;;5026243;28;20035;-81
2022/01/11 08:27:59;;;;;;;10.52;6.13;;;3.00;94.30;;;;;;4998102;28;20410;-81
2022/01/11 08:30:24;;;;;;;12.13;7.40;;;3.00;94.40;;;;;;5026356;28;20032;-81
2022/01/11 08:32:50;;;;;;;13.75;7.25;;;3.00;94.30;;;;;;5023632;28;20061;-81
2022/01/11 08:35:15;;;;;;;12.70;6.80;;;3.10;94.30;;;;;;5042274;28;20142;-81
2022/01/11 08:37:41;;;;;;;13.85;8.65;;;3.10;94.40;;;;;;5042029;28;20505;-81
2022/01/11 08:40:07;;;;;;;19.48;10.38;;;3.10;94.40;;;;;;5016362;28;20719;-81
2022/01/11 08:42:32;;;;;;;14.98;9.52;;;3.10;94.40;;;;;;5027208;28;20111;-81
2022/01/11 08:45:00;;;;;;;16.52;9.23;;;3.10;94.30;;;;;;5022373;28;20021;-80
2022/01/11 08:47:30;;;;;;;14.75;8.68;;;3.10;94.30;;;;;;5021255;28;20029;-81
2022/01/11 08:49:59;;;;;;;13.43;8.82;;;3.20;94.40;;;;;;5037848;28;20043;-81
2022/01/11 08:52:26;;;;;;;16.88;8.70;;;3.20;94.40;;;;;;5035281;28;20099;-81
2022/01/11 08:54:51;;;;;;;13.05;8.15;;;3.20;94.40;;;;;;5041396;28;20591;-80
2022/01/11 08:57:19;;;;;;;14.80;9.63;;;3.20;94.40;;;;;;5045227;28;20041;-81
2022/01/11 08:59:45;;;;;;;10.85;6.97;;;3.20;94.40;;;;;;4971536;28;20053;-82
2022/01/11 09:02:10;;;;;;;10.75;7.63;;;3.30;94.40;;;;;;5009229;28;20048;-82
2022/01/11 09:04:36;;;;;;;16.85;9.90;;;3.30;94.40;;;;;;4999702;28;20025;-80
2022/01/11 09:07:02;;;;;;;20.65;12.90;;;3.30;94.40;;;;;;5042024;28;20034;-81
2022/01/11 09:09:28;;;;;;;18.98;10.65;;;3.30;94.40;;;;;;5015271;28;20056;-81
2022/01/11 09:11:54;;;;;;;13.60;10.02;;;3.40;94.40;;;;;;5025489;28;20063;-82
2022/01/11 09:14:19;;;;;;;15.93;9.05;;;3.40;94.40;;;;;;5010179;28;20550;-81
2022/01/11 09:16:48;;;;;;;11.40;7.00;;;3.40;94.40;;;;;;5006938;28;20053;-81
2022/01/11 09:19:13;;;;;;;12.57;6.95;;;3.50;94.40;;;;;;5020617;28;20087;-81
2022/01/11 09:21:39;;;;;;;13.30;7.55;;;3.50;94.40;;;;;;5008195;28;20026;-82
2022/01/11 09:24:05;;;;;;;13.90;8.85;;;3.60;94.40;;;;;;5033713;28;20076;-82
2022/01/11 09:26:31;;;;;;;16.85;9.77;;;3.60;94.40;;;;;;5037770;28;20055;-82
2022/01/11 09:28:56;;;;;;;32.17;18.88;;;3.60;94.30;;;;;;5048508;28;20453;-82
2022/01/11 09:31:22;;;;;;;33.05;19.33;;;3.60;94.40;;;;;;5014829;28;20112;-82
2022/01/11 09:33:49;;;;;;;27.25;16.67;;;3.70;94.40;;;;;;5023560;28;20051;-82
2022/01/11 09:36:15;;;;;;;26.98;16.83;;;3.70;94.40;;;;;;4998661;28;20043;-82
2022/01/11 09:38:40;;;;;;;18.30;11.65;;;3.70;94.40;;;;;;5039900;28;20045;-82
2022/01/11 09:41:06;;;;;;;20.23;12.75;;;3.80;94.40;;;;;;5050583;28;20128;-82
2022/01/11 09:43:31;;;;;;;23.48;12.63;;;3.80;94.40;;;;;;5026720;28;20122;-82
2022/01/11 09:45:57;;;;;;;17.05;9.88;;;3.80;94.30;;;;;;5010595;28;20043;-82
2022/01/11 09:48:25;;;;;;;16.63;10.15;;;3.90;94.40;;;;;;5028377;28;20025;-82
2022/01/11 09:50:51;;;;;;;17.77;9.10;;;3.90;94.40;;;;;;5007094;28;20077;-82
2022/01/11 09:53:16;;;;;;;16.73;9.13;;;3.90;94.30;;;;;;5014515;28;20052;-82
2022/01/11 09:55:43;;;;;;;13.73;7.57;;;4.00;94.30;;;;;;5008979;28;20045;-82
2022/01/11 09:58:09;;;;;;;11.25;7.20;;;4.00;94.30;;;;;;5008236;28;20605;-82
2022/01/11 10:00:35;;;;;;;14.35;8.80;;;4.00;94.30;;;;;;5026274;28;20097;-82
2022/01/11 10:03:00;;;;;;;15.27;8.45;;;4.10;94.70;;;;;;5026170;28;20056;-82
2022/01/11 10:05:26;;;;;;;13.32;7.70;;;4.10;94.30;;;;;;5012635;28;20037;-82
2022/01/11 10:07:52;;;;;;;11.77;7.35;;;4.20;94.30;;;;;;4997286;28;20049;-82
2022/01/11 10:10:19;;;;;;;14.55;6.20;;;4.20;94.20;;;;;;5031099;28;20029;-82
2022/01/11 10:12:50;;;;;;;9.23;6.50;;;4.20;94.20;;;;;;4993669;28;20311;-82
2022/01/11 10:15:20;;;;;;;12.43;6.00;;;4.20;94.20;;;;;;5021779;28;20032;-82
2022/01/11 10:17:46;;;;;;;16.05;6.70;;;4.30;94.20;;;;;;5013255;28;20511;-82
2022/01/11 10:20:17;;;;;;;12.45;7.22;;;4.30;94.20;;;;;;5047452;28;20037;-82
2022/01/11 10:22:56;;;;;;;15.10;7.72;;;4.40;94.20;;;;;;5012976;28;20063;-82
2022/01/11 10:25:22;;;;;;;12.20;6.63;;;4.40;94.20;;;;;;5033509;28;20030;-82
2022/01/11 10:27:58;;;;;;;13.40;7.85;;;4.40;94.20;;;;;;5021304;28;20039;-82
2022/01/11 10:30:25;;;;;;;8.50;6.07;;;4.50;94.20;;;;;;5007691;28;20512;-82
2022/01/11 10:32:51;;;;;;;10.68;6.57;;;4.50;94.10;;;;;;5019788;28;20033;-81
2022/01/11 10:35:23;;;;;;;7.85;5.88;;;4.60;94.10;;;;;;5017726;28;20113;-82
2022/01/11 10:38:02;;;;;;;9.40;5.18;;;4.60;94.10;;;;;;5022677;28;20028;-82
2022/01/11 10:40:32;;;;;;;13.45;8.25;;;4.60;94.00;;;;;;5031290;28;20021;-82
2022/01/11 10:43:04;;;;;;;10.35;5.25;;;4.60;94.00;;;;;;5043272;28;20085;-82
2022/01/11 10:45:33;;;;;;;9.85;5.32;;;4.70;94.00;;;;;;5017798;28;20378;-82
2022/01/11 10:48:05;;;;;;;11.35;5.55;;;4.70;94.00;;;;;;5030045;28;20106;-81
2022/01/11 10:50:37;;;;;;;8.13;5.10;;;4.70;94.00;;;;;;5029871;28;20028;-81
2022/01/11 10:53:03;;;;;;;;;;;4.80;94.00;;;;;;5012664;28;20049;-82
2022/01/11 10:55:31;;;;;;;9.27;5.15;;;4.80;93.90;;;;;;5006252;28;19938;-82
2022/01/11 10:57:58;;;;;;;11.30;6.30;;;4.80;93.90;;;;;;5017156;28;20036;-82
2022/01/11 11:00:34;;;;;;;12.45;6.18;;;4.80;93.90;;;;;;5032103;28;20406;-82
2022/01/11 11:03:19;;;;;;;11.15;6.30;;;4.90;93.90;;;;;;5046670;28;20055;-82
2022/01/11 11:05:49;;;;;;;7.10;4.93;;;4.90;93.80;;;;;;5006361;28;20060;-82
2022/01/11 11:08:20;;;;;;;9.57;6.13;;;4.90;93.80;;;;;;5020327;28;20116;-81
2022/01/11 11:11:07;;;;;;;18.77;8.70;;;5.00;93.80;;;;;;5040912;28;20494;-82
2022/01/11 11:13:36;;;;;;;12.75;6.55;;;5.00;93.70;;;;;;5025896;28;20121;-82
2022/01/11 11:16:17;;;;;;;12.68;5.97;;;5.00;93.70;;;;;;5008484;28;20052;-82
2022/01/11 11:18:46;;;;;;;174.40;59.55;;;5.10;93.70;;;;;;5042247;28;20048;-82
2022/01/11 11:21:14;;;;;;;28.55;13.20;;;5.10;93.70;;;;;;5042582;28;20056;-82
2022/01/11 11:23:40;;;;;;;9.38;5.10;;;5.10;93.60;;;;;;5022819;28;20258;-82
2022/01/11 11:26:05;;;;;;;14.55;7.00;;;5.20;93.60;;;;;;5045457;28;20047;-82
2022/01/11 11:28:31;;;;;;;66.85;24.85;;;5.20;93.60;;;;;;5024136;28;20438;-82
2022/01/11 11:30:56;;;;;;;13.13;6.35;;;5.20;93.60;;;;;;5012186;28;20531;-82
2022/01/11 11:33:22;;;;;;;20.25;9.02;;;5.30;93.60;;;;;;5033432;28;20481;-82
2022/01/11 11:35:49;;;;;;;17.27;6.50;;;5.30;93.60;;;;;;5009773;28;20053;-82
2022/01/11 11:38:14;;;;;;;17.48;10.80;;;5.30;93.50;;;;;;5034862;28;20037;-82
2022/01/11 11:40:40;;;;;;;12.02;7.28;;;5.40;93.60;;;;;;5033239;28;20056;-82
2022/01/11 11:43:06;;;;;;;9.45;5.78;;;5.40;93.50;;;;;;5005682;28;20029;-82
2022/01/11 11:45:33;;;;;;;8.50;4.30;;;5.40;93.40;;;;;;5028646;28;20655;-82
2022/01/11 11:48:06;;;;;;;6.78;4.22;;;5.50;93.40;;;;;;5041308;28;20043;-82
2022/01/11 11:50:32;;;;;;;8.63;5.47;;;5.50;93.30;;;;;;5020365;28;20035;-82
2022/01/11 11:52:57;;;;;;;10.32;5.38;;;5.60;93.30;;;;;;5044922;28;20029;-82
2022/01/11 11:55:25;;;;;;;8.85;4.90;;;5.60;93.30;;;;;;5015783;28;20537;-82
2022/01/11 11:58:06;;;;;;;8.98;4.95;;;5.60;93.20;;;;;;5051852;28;20054;-82
2022/01/11 12:00:36;;;;;;;6.03;4.20;;;5.60;93.20;;;;;;5025046;28;20028;-82
2022/01/11 12:03:04;;;;;;;6.85;4.30;;;5.70;93.20;;;;;;5019432;28;20041;-82
2022/01/11 12:05:30;;;;;;;7.47;4.35;;;5.70;93.10;;;;;;5006235;28;20526;-82
2022/01/11 12:07:55;;;;;;;7.93;3.47;;;5.70;93.10;;;;;;5038337;28;20038;-82
2022/01/11 12:10:29;;;;;;;11.25;4.60;;;5.80;93.10;;;;;;5036857;28;20029;-82
2022/01/11 12:12:55;;;;;;;6.60;4.20;;;5.80;93.00;;;;;;5030467;28;20035;-82
2022/01/11 12:15:33;;;;;;;12.00;4.88;;;5.80;92.90;;;;;;5001769;28;20701;-82
2022/01/11 12:17:58;;;;;;;8.55;4.80;;;5.80;92.90;;;;;;5053370;28;20047;-82
2022/01/11 12:20:52;;;;;;;8.23;4.97;;;5.80;92.80;;;;;;5037577;28;20398;-82
2022/01/11 12:23:34;;;;;;;7.55;4.35;;;5.80;92.80;;;;;;5055095;28;20025;-82
2022/01/11 12:26:16;;;;;;;6.50;3.80;;;5.90;92.80;;;;;;5045157;28;20089;-82
2022/01/11 12:28:42;;;;;;;5.97;3.95;;;5.90;92.70;;;;;;5032731;28;20037;-82
2022/01/11 12:31:27;;;;;;;7.55;3.63;;;5.90;92.70;;;;;;5025614;28;20968;-82
2022/01/11 12:33:52;;;;;;;5.93;3.70;;;5.90;92.60;;;;;;5037255;28;20041;-82
2022/01/11 12:36:18;;;;;;;6.43;3.40;;;6.00;92.70;;;;;;5017675;28;20128;-82
2022/01/11 12:39:04;;;;;;;6.60;4.00;;;6.00;92.60;;;;;;4991707;28;20029;-82
2022/01/11 12:41:32;;;;;;;9.27;3.25;;;6.00;92.50;;;;;;5029325;28;20131;-82
2022/01/11 12:44:27;;;;;;;5.80;3.47;;;6.00;92.50;;;;;;5043110;28;20108;-82
2022/01/11 12:46:58;;;;;;;6.50;4.07;;;6.00;92.40;;;;;;5028292;28;20041;-82
2022/01/11 12:49:24;;;;;;;6.25;3.92;;;6.00;92.50;;;;;;5038855;28;20089;-82
2022/01/11 12:51:56;;;;;;;5.65;3.53;;;6.00;92.40;;;;;;5024747;28;20080;-82
2022/01/11 12:54:28;;;;;;;5.90;3.72;;;6.00;92.30;;;;;;5025084;28;20032;-82